Durban, South Africa

6:43 PM SAST on March 05, 2015 (GMT +0200)
Brighton Beach, Durban | Change Station
CLOSE
Current Station
Personal Weather Station
Location: Durban, KWAZULU-NATAL
Elevation: 289 ft
Nearby Weather Stations

Elev 289 ft 29.93 °S, 31.01 °E | Updated 22 seconds ago

Mostly Cloudy
Mostly Cloudy
74.7 °F
Feels Like 73 °F
N
5.4
Wind Variable Wind from SSW
Gusts 8.5 mph

Today
High -- | Low -- °F
--% Chance of Precip.
Yesterday
High -- | Low -- °F
Precip. -- in
5:49 AM 6:25 PM
Full, 100% visible
Pressure 30.04 in
Visibility 6.2 miles
Clouds Few 2000 ft
Scattered Clouds 4000 ft
Mostly Cloudy 4900 ft
Heat Index 73 °F
Dew Point 73 °F
Humidity 95%
Rainfall in
Snow Depth Not available.
UV 0 out of 12
Pollen Not available.
Air Quality Not available.
Flu Activity Not available.
METAR FALE 051600Z 20015KT 9999 FEW020 SCT040 BKN049 25/19 Q1017 NOSIG

More Conditions Fewer Conditions

Pressure 30.04 in
Visibility 6.2 miles
Clouds Few 2000 ft
Scattered Clouds 4000 ft
Mostly Cloudy 4900 ft
Heat Index 73 °F
Dew Point 73 °F
Humidity 95%
Rainfall in
Snow Depth Not available.
UV 0 out of 12
Pollen Not available.
Air Quality Not available.
Flu Activity Not available.
METAR FALE 051600Z 20015KT 9999 FEW020 SCT040 BKN049 25/19 Q1017 NOSIG

More Conditions Fewer Conditions

10-Day Weather Forecast

Almanac

Astronomy

Mar. 05, 2015 Rise Set
Actual Time
Civil Twilight
Nautical Twilight
Astronomical Twilight
Moon
Length of Visible Light
Length of Day
Tomorrow will be .
, % of the Moon is Illuminated

Today's Extremes

Country Highs Country Lows

Community

WunderPhotos

Upload Photos

1,802,851 photos uploaded!

WunderBlogs® & News

Nearby

Air Quality

  Air Quality AQ Index Pollutant
Not available.

Snow Depth

Station Depth Elevation

Earthquake Activity

City Distance Mag. Time & Date
Minimum magnitude displayed is 2.5.

Coastal Water Temperatures

Place Temperature

Nearby Weather Stations